Time;durP1;ratioP1;P1;durP2;ratioP2;P2;SDS_P1;SDS_P2;PMS_P1;PMS_P2;Temp;Humidity;BMP_temperature;BMP_pressure;BME280_temperature;BME280_humidity;BME280_pressure;Samples;Min_cycle;Max_cycle;Signal;HPM_P1;HPM_P2
2024/03/09 00:02:03;;;;;;;18.63;11.47;;;7.10;90.50;;;;;;4979857;28;20501;-74
2024/03/09 00:04:50;;;;;;;19.23;12.30;;;7.10;90.10;;;;;;4980217;28;20953;-74
2024/03/09 00:07:36;;;;;;;18.60;10.87;;;7.10;90.40;;;;;;4984306;28;20548;-74
2024/03/09 00:10:22;;;;;;;16.43;11.97;;;7.10;89.40;;;;;;4987811;28;20515;-74
2024/03/09 00:13:10;;;;;;;16.50;11.60;;;7.10;90.40;;;;;;4986293;28;20941;-74
2024/03/09 00:15:55;;;;;;;16.10;11.20;;;7.10;91.10;;;;;;4984122;28;20457;-74
2024/03/09 00:18:41;;;;;;;18.60;12.60;;;7.10;90.30;;;;;;4987173;28;20808;-74
2024/03/09 00:21:28;;;;;;;16.03;11.13;;;7.10;90.20;;;;;;4983622;28;20896;-74
2024/03/09 00:24:13;;;;;;;19.80;12.50;;;7.10;90.90;;;;;;4985070;28;20517;-74
2024/03/09 00:26:59;;;;;;;17.47;11.50;;;7.20;90.10;;;;;;4981119;28;20460;-74
2024/03/09 00:29:45;;;;;;;17.83;12.47;;;7.30;90.30;;;;;;4990638;28;20406;-74
2024/03/09 00:32:31;;;;;;;18.37;12.63;;;7.20;90.10;;;;;;4992760;28;20483;-74
2024/03/09 00:35:17;;;;;;;16.80;11.93;;;7.20;90.40;;;;;;4995072;28;20474;-74
2024/03/09 00:38:05;;;;;;;18.67;11.77;;;7.20;90.30;;;;;;4993155;28;20816;-74
2024/03/09 00:40:50;;;;;;;19.83;12.80;;;7.20;91.10;;;;;;4991799;28;20484;-74
2024/03/09 00:43:43;;;;;;;15.90;11.23;;;7.10;90.90;;;;;;4989114;28;20464;-74
2024/03/09 00:46:28;;;;;;;19.40;13.23;;;7.10;91.90;;;;;;4988338;28;20987;-73
2024/03/09 00:49:14;;;;;;;18.47;12.87;;;7.10;92.00;;;;;;4990293;28;20439;-73
2024/03/09 00:52:00;;;;;;;17.35;12.38;;;7.10;91.60;;;;;;4986789;28;20426;-73
2024/03/09 00:54:47;;;;;;;17.60;12.60;;;7.10;91.60;;;;;;4990054;28;20237;-73
2024/03/09 00:57:33;;;;;;;19.73;13.50;;;7.10;91.70;;;;;;4989521;28;20559;-74
2024/03/09 01:00:19;;;;;;;19.43;12.27;;;7.10;91.60;;;;;;4986714;28;20482;-74
2024/03/09 01:03:06;;;;;;;20.87;12.53;;;7.10;90.90;;;;;;4984638;28;20451;-73
2024/03/09 01:05:51;;;;;;;20.30;13.43;;;7.20;91.10;;;;;;4984271;28;20596;-73
2024/03/09 01:08:40;;;;;;;19.08;12.93;;;7.20;90.90;;;;;;4983757;28;20617;-73
2024/03/09 01:11:26;;;;;;;16.97;11.70;;;7.10;91.10;;;;;;4984159;28;20210;-73
2024/03/09 01:14:13;;;;;;;23.23;14.03;;;7.10;91.30;;;;;;4986226;28;20522;-73
2024/03/09 01:16:59;;;;;;;19.40;12.70;;;7.10;91.70;;;;;;4986261;28;20436;-73
2024/03/09 01:19:45;;;;;;;19.13;13.23;;;7.00;91.20;;;;;;4985296;28;20480;-74
2024/03/09 01:22:31;;;;;;;20.43;12.93;;;7.00;91.60;;;;;;4986408;28;20523;-73
2024/03/09 01:25:17;;;;;;;17.83;12.43;;;7.00;91.40;;;;;;4982480;28;20824;-73
2024/03/09 01:28:05;;;;;;;21.50;13.50;;;7.10;91.40;;;;;;4990421;28;20443;-73
2024/03/09 01:30:51;;;;;;;21.30;14.10;;;7.00;91.90;;;;;;4991587;28;20511;-73
2024/03/09 01:33:38;;;;;;;19.20;13.40;;;7.00;92.30;;;;;;4987688;28;20696;-73
2024/03/09 01:36:25;;;;;;;20.67;12.60;;;6.90;92.30;;;;;;4989555;28;21067;-73
2024/03/09 01:39:11;;;;;;;22.53;14.30;;;6.90;91.40;;;;;;4984043;28;21042;-73
2024/03/09 01:41:56;;;;;;;22.47;13.33;;;6.90;92.70;;;;;;4984934;28;20461;-74
2024/03/09 01:44:43;;;;;;;23.17;13.93;;;7.00;91.80;;;;;;4985210;28;20431;-73
2024/03/09 01:47:29;;;;;;;23.83;12.80;;;7.00;92.50;;;;;;4982845;28;21070;-73
2024/03/09 01:50:15;;;;;;;27.70;14.63;;;6.90;93.00;;;;;;4983919;28;20461;-73
2024/03/09 01:53:01;;;;;;;20.13;12.63;;;6.90;93.10;;;;;;4986880;28;20467;-74
2024/03/09 01:55:48;;;;;;;21.83;14.87;;;6.90;93.00;;;;;;4986349;28;20478;-73
2024/03/09 01:58:34;;;;;;;22.63;15.15;;;6.90;93.20;;;;;;4984311;28;20469;-74
2024/03/09 02:01:26;;;;;;;19.27;13.37;;;6.90;93.50;;;;;;4981153;28;20232;-74
2024/03/09 02:04:12;;;;;;;19.97;13.40;;;6.90;93.70;;;;;;4986118;28;20470;-74
2024/03/09 02:06:58;;;;;;;22.10;15.70;;;6.90;93.90;;;;;;4981940;28;20448;-73
2024/03/09 02:09:46;;;;;;;29.57;13.70;;;6.90;94.20;;;;;;4986160;28;20479;-74
2024/03/09 02:12:32;;;;;;;21.70;14.27;;;6.90;94.60;;;;;;4984972;28;20825;-73
2024/03/09 02:15:17;;;;;;;20.53;13.77;;;6.90;94.30;;;;;;4984103;28;20534;-74
2024/03/09 02:18:05;;;;;;;20.00;13.90;;;6.90;94.30;;;;;;4983095;28;20434;-74
2024/03/09 02:20:51;;;;;;;24.20;16.43;;;6.90;94.10;;;;;;4982461;28;20846;-73
2024/03/09 02:23:38;;;;;;;19.40;13.10;;;6.80;94.60;;;;;;4986586;28;20834;-74
2024/03/09 02:26:25;;;;;;;26.90;15.17;;;6.80;95.50;;;;;;4987899;28;20549;-74
2024/03/09 02:29:13;;;;;;;19.53;13.23;;;6.70;96.00;;;;;;4984161;28;20987;-74
2024/03/09 02:31:59;;;;;;;19.00;12.03;;;6.70;96.90;;;;;;4982007;28;20878;-73
2024/03/09 02:34:45;;;;;;;21.23;13.60;;;6.70;97.40;;;;;;4983729;28;20853;-73
2024/03/09 02:37:30;;;;;;;22.08;14.18;;;6.60;97.80;;;;;;4983860;28;20444;-73
2024/03/09 02:40:18;;;;;;;24.77;15.90;;;6.50;98.70;;;;;;4987211;28;20220;-73
2024/03/09 02:43:06;;;;;;;20.57;13.87;;;6.50;99.30;;;;;;4985201;28;20962;-73
2024/03/09 02:45:52;;;;;;;22.40;14.00;;;6.40;99.80;;;;;;4981250;28;20496;-73
2024/03/09 02:48:37;;;;;;;23.17;13.53;;;6.40;99.90;;;;;;4985652;28;20890;-73
2024/03/09 02:51:25;;;;;;;21.90;15.13;;;6.50;99.90;;;;;;4984954;28;20448;-73
2024/03/09 02:54:10;;;;;;;20.87;13.70;;;6.50;99.90;;;;;;4987234;28;20507;-73
2024/03/09 02:56:57;;;;;;;19.60;13.80;;;6.50;99.90;;;;;;4985274;28;20651;-73
2024/03/09 02:59:44;;;;;;;20.90;13.83;;;6.50;99.90;;;;;;4988668;28;20456;-74
2024/03/09 03:05:35;;;;;;;19.63;14.13;;;6.40;99.90;;;;;;4984193;28;20540;-74
2024/03/09 03:08:21;;;;;;;21.50;14.20;;;6.40;99.90;;;;;;4989180;28;20567;-74
2024/03/09 03:11:06;;;;;;;22.77;14.63;;;6.30;99.90;;;;;;4986975;28;20447;-73
2024/03/09 03:13:54;;;;;;;18.83;12.90;;;6.30;99.90;;;;;;4990008;28;20489;-73
2024/03/09 03:16:41;;;;;;;21.60;14.03;;;6.30;99.90;;;;;;4985689;28;20444;-73
2024/03/09 03:19:28;;;;;;;20.50;12.43;;;6.30;99.90;;;;;;4991841;28;20455;-73
2024/03/09 03:22:14;;;;;;;23.10;14.20;;;6.40;99.90;;;;;;4986957;28;20481;-73
2024/03/09 03:24:59;;;;;;;22.73;13.97;;;6.50;99.90;;;;;;4981454;28;20480;-73
2024/03/09 03:27:47;;;;;;;21.23;14.60;;;6.40;99.90;;;;;;4987570;28;20455;-73
2024/03/09 03:30:33;;;;;;;29.00;17.00;;;6.40;99.90;;;;;;4986144;28;20433;-73
2024/03/09 03:33:22;;;;;;;19.60;14.13;;;6.40;99.90;;;;;;4991937;28;20520;-73
2024/03/09 03:36:09;;;;;;;22.20;13.97;;;6.30;99.90;;;;;;4989088;28;21181;-74
2024/03/09 03:38:54;;;;;;;21.53;13.60;;;6.30;99.90;;;;;;4984251;28;20443;-73
2024/03/09 03:41:41;;;;;;;23.27;14.23;;;6.30;99.90;;;;;;4984448;28;20479;-73
2024/03/09 03:44:30;;;;;;;20.43;14.00;;;6.30;99.90;;;;;;4981174;28;20606;-73
2024/03/09 03:47:15;;;;;;;17.67;12.90;;;6.30;99.90;;;;;;4988279;28;20464;-73
2024/03/09 03:50:03;;;;;;;22.70;13.90;;;6.30;99.90;;;;;;4985119;28;20468;-73
2024/03/09 03:52:48;;;;;;;22.40;14.30;;;6.30;99.90;;;;;;4989635;28;20452;-73
2024/03/09 03:55:34;;;;;;;21.67;14.83;;;6.30;99.90;;;;;;4984446;28;20485;-73
2024/03/09 03:58:23;;;;;;;25.80;14.27;;;6.30;99.90;;;;;;4979513;28;20460;-73
2024/03/09 04:01:08;;;;;;;25.20;13.70;;;6.40;99.90;;;;;;4982207;28;20360;-73
2024/03/09 04:03:53;;;;;;;21.90;14.13;;;6.30;99.90;;;;;;4981407;28;20483;-73
2024/03/09 04:06:44;;;;;;;20.63;14.03;;;6.30;99.90;;;;;;4990040;28;20926;-73
2024/03/09 04:09:30;;;;;;;20.00;12.73;;;6.30;99.90;;;;;;4985089;28;20837;-73
2024/03/09 04:12:17;;;;;;;21.00;14.70;;;6.20;99.90;;;;;;4991220;28;20559;-73
2024/03/09 04:15:04;;;;;;;21.30;14.37;;;6.20;99.90;;;;;;4985923;28;20570;-73
2024/03/09 04:17:50;;;;;;;20.20;13.80;;;6.20;99.90;;;;;;4985962;28;20459;-73
2024/03/09 04:20:37;;;;;;;23.87;15.13;;;6.30;99.90;;;;;;4986222;28;20475;-73
2024/03/09 04:23:24;;;;;;;22.73;13.90;;;6.20;99.90;;;;;;4990046;28;20470;-73
2024/03/09 04:26:11;;;;;;;21.40;14.37;;;6.20;99.90;;;;;;4989882;28;20787;-73
2024/03/09 04:28:58;;;;;;;22.10;14.50;;;6.30;99.90;;;;;;4983809;28;20464;-73
2024/03/09 04:31:44;;;;;;;22.70;13.70;;;6.20;99.90;;;;;;4986965;28;20720;-73
2024/03/09 04:34:33;;;;;;;24.50;15.53;;;6.20;99.90;;;;;;4991074;28;20463;-73
2024/03/09 04:37:25;;;;;;;22.00;15.27;;;6.10;99.90;;;;;;4983888;28;20619;-73
2024/03/09 04:40:16;;;;;;;23.23;14.27;;;6.00;99.90;;;;;;4988209;28;20457;-73
2024/03/09 04:43:04;;;;;;;35.35;15.23;;;5.90;99.90;;;;;;4989277;28;20227;-73
2024/03/09 04:45:50;;;;;;;24.57;15.53;;;5.90;99.90;;;;;;4988928;28;20232;-73
2024/03/09 04:48:36;;;;;;;22.50;12.67;;;5.90;99.90;;;;;;4986476;28;21032;-73
2024/03/09 04:51:22;;;;;;;21.40;13.70;;;5.90;99.90;;;;;;4987623;28;20985;-73
2024/03/09 04:54:10;;;;;;;21.40;14.83;;;5.90;99.90;;;;;;4981677;28;20464;-73
2024/03/09 04:56:57;;;;;;;24.77;15.53;;;5.90;99.90;;;;;;4981157;28;20460;-73
2024/03/09 04:59:44;;;;;;;22.42;14.85;;;5.90;99.90;;;;;;4982125;28;20817;-73
2024/03/09 05:02:32;;;;;;;22.47;15.27;;;5.90;99.90;;;;;;4987401;28;20227;-73
2024/03/09 05:05:18;;;;;;;20.13;13.93;;;5.90;99.90;;;;;;4987404;28;20478;-73
2024/03/09 05:08:04;;;;;;;22.03;14.47;;;5.90;99.90;;;;;;4987147;28;20561;-73
2024/03/09 05:10:50;;;;;;;28.43;16.20;;;5.90;99.90;;;;;;4983660;28;20433;-73
2024/03/09 05:13:37;;;;;;;22.43;15.10;;;5.80;99.90;;;;;;4986532;28;20966;-73
2024/03/09 05:16:23;;;;;;;24.33;15.80;;;5.90;99.90;;;;;;4987867;28;20681;-74
2024/03/09 05:19:08;;;;;;;23.47;14.93;;;5.90;99.90;;;;;;4988581;28;20627;-73
2024/03/09 05:21:54;;;;;;;23.60;14.63;;;5.90;99.90;;;;;;4985131;28;20836;-73
2024/03/09 05:24:40;;;;;;;19.60;14.00;;;5.90;99.90;;;;;;4984817;28;20470;-73
2024/03/09 05:27:26;;;;;;;22.63;14.03;;;5.90;99.90;;;;;;4987845;28;20447;-73
2024/03/09 05:30:16;;;;;;;22.47;14.57;;;5.90;99.90;;;;;;4986088;28;20984;-73
2024/03/09 05:33:06;;;;;;;21.80;15.10;;;5.90;99.90;;;;;;4983820;28;20980;-73
2024/03/09 05:35:52;;;;;;;26.08;15.50;;;5.90;99.90;;;;;;4983774;28;20262;-73
2024/03/09 05:38:41;;;;;;;23.23;14.33;;;6.00;99.90;;;;;;4985779;28;20212;-73
2024/03/09 05:41:27;;;;;;;25.83;16.07;;;6.00;99.90;;;;;;4985170;28;20483;-73
2024/03/09 05:44:13;;;;;;;24.37;14.87;;;5.90;99.90;;;;;;4984193;28;20872;-73
2024/03/09 05:47:01;;;;;;;23.30;14.40;;;5.90;99.90;;;;;;4984731;28;20467;-73
2024/03/09 05:49:47;;;;;;;23.47;14.87;;;6.00;99.90;;;;;;4988157;28;20579;-73
2024/03/09 05:52:33;;;;;;;23.63;14.77;;;5.90;99.90;;;;;;4985585;28;20431;-73
2024/03/09 05:55:20;;;;;;;19.38;13.82;;;5.80;99.90;;;;;;4989162;28;21059;-73
2024/03/09 05:58:07;;;;;;;24.17;15.50;;;5.90;99.90;;;;;;4984596;28;20585;-73
2024/03/09 06:00:52;;;;;;;22.50;15.00;;;5.90;99.90;;;;;;4984106;28;20546;-73
2024/03/09 06:03:41;;;;;;;27.90;16.30;;;6.00;99.90;;;;;;4986476;28;20472;-73
2024/03/09 06:06:27;;;;;;;25.53;15.00;;;5.90;99.90;;;;;;4986775;28;20509;-73
2024/03/09 06:09:13;;;;;;;23.85;15.27;;;5.90;99.90;;;;;;4986655;28;20451;-73
2024/03/09 06:11:59;;;;;;;25.90;16.07;;;6.00;99.90;;;;;;4984240;28;20344;-73
2024/03/09 06:14:45;;;;;;;22.67;14.73;;;6.00;99.90;;;;;;4988831;28;20526;-73
2024/03/09 06:17:31;;;;;;;26.97;15.43;;;6.00;99.90;;;;;;4988037;28;20925;-73
2024/03/09 06:20:18;;;;;;;26.13;17.60;;;6.00;99.90;;;;;;4983574;28;20529;-73
2024/03/09 06:23:04;;;;;;;33.53;18.10;;;6.00;99.90;;;;;;4987321;28;20584;-73
2024/03/09 06:25:51;;;;;;;26.00;16.27;;;6.10;99.90;;;;;;4985893;28;20879;-73
2024/03/09 06:28:38;;;;;;;21.77;14.55;;;6.10;99.90;;;;;;4982015;28;20454;-73
2024/03/09 06:31:24;;;;;;;21.77;15.20;;;6.10;99.90;;;;;;4987431;28;20924;-73
2024/03/09 06:34:10;;;;;;;22.97;15.53;;;6.20;99.90;;;;;;4985690;28;20444;-73
2024/03/09 06:36:57;;;;;;;22.70;14.77;;;6.20;99.90;;;;;;4985388;28;20832;-73
2024/03/09 06:39:42;;;;;;;23.57;14.90;;;6.20;99.90;;;;;;4985790;28;20541;-73
2024/03/09 06:42:29;;;;;;;26.40;16.90;;;6.30;99.90;;;;;;4985746;28;20518;-73
2024/03/09 06:45:14;;;;;;;25.57;16.33;;;6.30;99.90;;;;;;4983632;28;20476;-73
2024/03/09 06:48:00;;;;;;;24.80;16.53;;;6.30;99.90;;;;;;4983848;28;20448;-74
2024/03/09 06:50:46;;;;;;;29.02;17.05;;;6.30;99.90;;;;;;4986396;28;20455;-72
2024/03/09 06:53:33;;;;;;;29.47;16.77;;;6.40;99.90;;;;;;4981852;28;20203;-73
2024/03/09 06:56:19;;;;;;;32.33;18.70;;;6.40;99.90;;;;;;4987171;28;20461;-73
2024/03/09 06:59:05;;;;;;;29.30;18.90;;;6.40;99.90;;;;;;4980014;28;20209;-73
2024/03/09 07:01:56;;;;;;;31.23;18.40;;;6.50;99.90;;;;;;4985039;28;20673;-74
2024/03/09 07:04:43;;;;;;;27.10;17.57;;;6.50;99.90;;;;;;4988714;28;20591;-73
2024/03/09 07:07:29;;;;;;;25.33;16.43;;;6.50;99.90;;;;;;4987726;28;20523;-73
2024/03/09 07:10:17;;;;;;;24.60;15.67;;;6.50;99.90;;;;;;4989186;28;20441;-73
2024/03/09 07:13:04;;;;;;;24.93;16.23;;;6.60;99.90;;;;;;4984052;28;20464;-73
2024/03/09 07:15:49;;;;;;;24.90;15.63;;;6.60;99.90;;;;;;4994477;28;20479;-74
2024/03/09 07:18:37;;;;;;;27.53;16.57;;;6.70;99.90;;;;;;4985833;28;20463;-74
2024/03/09 07:21:23;;;;;;;23.80;16.13;;;6.80;99.90;;;;;;4989073;28;20455;-73
2024/03/09 07:24:09;;;;;;;24.13;15.93;;;6.90;99.90;;;;;;4984755;28;20464;-73
2024/03/09 07:26:56;;;;;;;22.30;15.30;;;7.00;99.90;;;;;;4985295;28;20464;-73
2024/03/09 07:29:49;;;;;;;30.63;19.73;;;7.00;99.90;;;;;;4986352;28;20844;-73
2024/03/09 07:32:35;;;;;;;24.20;15.87;;;7.00;99.90;;;;;;4986181;28;20629;-73
2024/03/09 07:35:25;;;;;;;24.23;15.23;;;7.10;99.90;;;;;;4986820;28;20861;-75
2024/03/09 07:38:10;;;;;;;23.40;15.50;;;7.20;99.90;;;;;;4987429;28;20452;-73
2024/03/09 07:40:56;;;;;;;25.30;16.60;;;7.30;99.90;;;;;;4986766;28;20432;-74
2024/03/09 07:43:44;;;;;;;26.13;16.80;;;7.30;99.90;;;;;;4981762;28;20569;-73
2024/03/09 07:46:30;;;;;;;27.10;14.80;;;7.40;99.90;;;;;;4983922;28;20441;-73
2024/03/09 07:49:16;;;;;;;31.03;18.00;;;7.40;99.90;;;;;;4981639;28;20553;-74
2024/03/09 07:52:01;;;;;;;28.53;18.67;;;7.50;99.90;;;;;;4983207;28;20505;-73
2024/03/09 07:54:47;;;;;;;24.50;16.43;;;7.60;99.90;;;;;;4985767;28;20477;-73
2024/03/09 07:57:33;;;;;;;29.50;16.50;;;7.60;99.90;;;;;;4988175;28;20453;-73
2024/03/09 08:00:27;;;;;;;26.03;15.50;;;7.70;99.90;;;;;;4986195;28;20535;-72
2024/03/09 08:03:12;;;;;;;24.80;16.60;;;7.70;99.90;;;;;;4984311;28;20475;-73
2024/03/09 08:05:58;;;;;;;26.20;14.90;;;7.70;99.90;;;;;;4986061;28;20473;-73
2024/03/09 08:08:44;;;;;;;27.77;15.40;;;7.70;99.90;;;;;;4987668;28;20435;-74
2024/03/09 08:11:31;;;;;;;26.20;15.80;;;7.70;99.50;;;;;;4989222;28;20434;-73
2024/03/09 08:14:18;;;;;;;22.77;15.30;;;7.80;99.90;;;;;;4986524;28;20444;-73
2024/03/09 08:17:07;;;;;;;25.07;15.50;;;7.90;99.70;;;;;;4984818;28;20480;-73
2024/03/09 08:19:53;;;;;;;25.50;15.53;;;8.00;98.60;;;;;;4982322;28;20482;-73
2024/03/09 08:22:40;;;;;;;26.53;15.57;;;8.20;96.90;;;;;;4983850;28;21015;-73
2024/03/09 08:25:27;;;;;;;24.80;15.30;;;8.30;96.40;;;;;;4984991;28;20527;-73
2024/03/09 08:28:14;;;;;;;26.60;16.40;;;8.40;96.20;;;;;;4984152;28;20453;-73
2024/03/09 08:31:01;;;;;;;38.60;16.47;;;8.50;95.10;;;;;;4984538;28;20453;-74
2024/03/09 08:33:48;;;;;;;24.57;16.13;;;8.50;94.30;;;;;;4984994;28;20781;-73
2024/03/09 08:36:34;;;;;;;29.20;19.33;;;8.60;92.50;;;;;;4983417;28;21011;-73
2024/03/09 08:39:19;;;;;;;27.30;16.40;;;8.50;93.20;;;;;;4984466;28;20532;-73
2024/03/09 08:42:06;;;;;;;22.30;15.13;;;8.40;92.90;;;;;;4982076;28;20606;-73
2024/03/09 08:44:52;;;;;;;25.43;15.60;;;8.40;92.60;;;;;;4985212;28;20488;-73
2024/03/09 08:47:37;;;;;;;26.33;16.23;;;8.40;94.10;;;;;;4977859;28;20452;-73
2024/03/09 08:50:25;;;;;;;25.20;16.20;;;8.60;93.90;;;;;;4981264;28;20457;-73
2024/03/09 08:53:11;;;;;;;22.77;16.20;;;8.70;91.40;;;;;;4989118;28;20452;-74
2024/03/09 08:55:57;;;;;;;24.57;14.47;;;8.80;90.70;;;;;;4987074;28;20447;-73
2024/03/09 08:58:42;;;;;;;27.77;16.13;;;9.00;92.40;;;;;;4992687;28;20536;-74
2024/03/09 09:01:31;;;;;;;25.90;16.17;;;9.10;90.20;;;;;;4989321;28;20431;-73
2024/03/09 09:04:17;;;;;;;23.03;14.97;;;9.20;91.40;;;;;;4988911;28;20952;-74
2024/03/09 09:07:05;;;;;;;21.27;14.20;;;9.30;89.50;;;;;;4987976;28;20655;-74
2024/03/09 09:09:51;;;;;;;24.17;14.83;;;9.50;88.40;;;;;;4989836;28;20508;-74
2024/03/09 09:12:38;;;;;;;25.83;16.33;;;9.60;82.60;;;;;;4990294;28;20585;-74
2024/03/09 09:15:24;;;;;;;20.33;14.43;;;9.80;83.90;;;;;;4993350;28;20460;-73
2024/03/09 09:18:10;;;;;;;21.83;14.60;;;9.90;85.50;;;;;;4989251;28;20464;-73
2024/03/09 09:20:55;;;;;;;25.77;15.70;;;10.00;80.20;;;;;;4985830;28;20547;-74
2024/03/09 09:23:42;;;;;;;22.57;14.40;;;10.10;78.60;;;;;;4989389;28;20467;-74
2024/03/09 09:26:28;;;;;;;23.53;15.27;;;10.20;74.80;;;;;;4988345;28;20875;-73
2024/03/09 09:29:13;;;;;;;21.23;14.80;;;10.40;71.10;;;;;;4986435;28;20567;-73
2024/03/09 09:32:00;;;;;;;23.63;14.70;;;10.60;71.60;;;;;;4989972;28;21258;-73
2024/03/09 09:34:45;;;;;;;24.97;15.60;;;10.70;70.80;;;;;;4989542;28;20485;-72
2024/03/09 09:37:32;;;;;;;24.17;15.50;;;10.90;69.00;;;;;;4985596;28;20461;-72
2024/03/09 09:40:19;;;;;;;27.70;18.17;;;11.00;69.50;;;;;;4984717;28;20848;-72
2024/03/09 09:43:08;;;;;;;31.83;18.30;;;10.90;67.20;;;;;;4988562;28;20572;-72
2024/03/09 09:45:55;;;;;;;27.80;17.63;;;11.00;66.20;;;;;;4988759;28;20823;-72
2024/03/09 09:48:41;;;;;;;25.90;16.00;;;11.20;67.30;;;;;;4987237;28;20441;-73
2024/03/09 09:51:28;;;;;;;21.10;14.80;;;11.20;65.40;;;;;;4992134;28;20490;-73
2024/03/09 09:54:14;;;;;;;21.97;13.20;;;11.20;65.70;;;;;;4984682;28;20450;-73
2024/03/09 09:57:01;;;;;;;23.57;15.57;;;11.40;61.30;;;;;;4984831;28;20931;-73
2024/03/09 09:59:46;;;;;;;20.93;14.80;;;11.40;63.40;;;;;;4981311;28;20443;-72
2024/03/09 10:02:32;;;;;;;20.83;15.80;;;11.50;58.80;;;;;;4984997;28;20560;-72
2024/03/09 10:05:18;;;;;;;20.40;13.77;;;11.60;60.10;;;;;;4986683;28;20456;-72
2024/03/09 10:08:06;;;;;;;20.90;15.07;;;11.70;61.70;;;;;;4984005;28;20434;-73
2024/03/09 10:10:52;;;;;;;20.20;13.10;;;11.90;61.40;;;;;;4983519;28;20405;-73
2024/03/09 10:13:40;;;;;;;20.93;13.83;;;12.10;59.60;;;;;;4979535;28;20438;-73
2024/03/09 10:16:27;;;;;;;22.77;13.50;;;12.20;53.90;;;;;;4983953;28;21440;-73
2024/03/09 10:19:18;;;;;;;20.43;13.47;;;12.30;55.40;;;;;;4983548;28;20837;-73
2024/03/09 10:22:04;;;;;;;19.20;13.00;;;12.60;55.20;;;;;;4987100;28;20476;-73
2024/03/09 10:24:53;;;;;;;20.30;14.90;;;12.80;52.30;;;;;;4990048;28;20584;-72
2024/03/09 10:27:39;;;;;;;27.30;16.53;;;12.90;46.10;;;;;;4986217;28;20798;-73
2024/03/09 10:30:26;;;;;;;25.10;15.60;;;12.90;48.10;;;;;;4986511;28;20460;-73
2024/03/09 10:33:15;;;;;;;21.20;14.60;;;13.00;45.30;;;;;;4987852;28;20450;-72
2024/03/09 10:36:00;;;;;;;21.43;14.13;;;13.10;45.00;;;;;;4985756;28;20560;-73
2024/03/09 10:38:49;;;;;;;17.77;13.63;;;13.20;45.90;;;;;;4985256;28;20412;-73
2024/03/09 10:41:36;;;;;;;22.67;14.80;;;13.40;47.40;;;;;;4988343;28;20405;-73
2024/03/09 10:44:23;;;;;;;18.23;12.57;;;13.50;41.40;;;;;;4988500;28;20485;-73
2024/03/09 10:47:12;;;;;;;19.40;13.67;;;13.50;39.50;;;;;;4987482;28;20444;-73
2024/03/09 10:50:01;;;;;;;19.63;13.20;;;13.60;38.70;;;;;;4982000;28;20460;-73
2024/03/09 10:52:53;;;;;;;21.47;13.97;;;13.60;38.70;;;;;;4985126;28;20441;-72
2024/03/09 10:55:47;;;;;;;19.83;13.90;;;13.80;39.40;;;;;;4980621;28;20484;-73
2024/03/09 10:58:34;;;;;;;21.20;14.10;;;13.90;37.20;;;;;;4991494;28;20517;-73
2024/03/09 11:01:21;;;;;;;21.37;14.20;;;13.80;39.70;;;;;;4984657;28;20497;-73
2024/03/09 11:04:09;;;;;;;19.70;13.77;;;14.00;39.30;;;;;;4983489;28;22036;-73
2024/03/09 11:06:55;;;;;;;19.93;14.00;;;14.30;37.90;;;;;;4986068;28;20441;-72
2024/03/09 11:09:41;;;;;;;22.07;14.23;;;14.30;34.80;;;;;;4987869;28;20466;-73
2024/03/09 11:12:27;;;;;;;22.67;15.43;;;14.40;33.60;;;;;;4986960;28;20432;-73
2024/03/09 11:15:13;;;;;;;20.90;14.00;;;14.50;33.30;;;;;;4989946;28;20482;-73
2024/03/09 11:17:59;;;;;;;23.10;14.13;;;14.70;33.90;;;;;;4987383;28;20433;-73
2024/03/09 11:20:50;;;;;;;19.57;12.70;;;14.80;32.70;;;;;;4985861;28;20446;-73
2024/03/09 11:23:36;;;;;;;20.17;13.53;;;14.80;34.00;;;;;;4985720;28;20626;-73
2024/03/09 11:26:23;;;;;;;19.73;13.90;;;14.90;34.10;;;;;;4984174;28;20861;-72
2024/03/09 11:29:11;;;;;;;19.43;12.83;;;15.00;30.60;;;;;;4984121;28;20448;-73
2024/03/09 11:31:58;;;;;;;24.40;13.00;;;15.10;28.50;;;;;;4981839;28;20446;-73
2024/03/09 11:34:44;;;;;;;18.53;12.40;;;15.20;28.60;;;;;;4984528;28;20513;-73
2024/03/09 11:37:44;;;;;;;20.53;13.60;;;15.30;28.70;;;;;;4982154;28;20424;-73
2024/03/09 11:40:34;;;;;;;21.17;13.27;;;15.20;26.70;;;;;;4982845;28;20422;-73
2024/03/09 11:43:20;;;;;;;19.03;11.87;;;15.30;26.10;;;;;;4981855;28;21257;-73
2024/03/09 11:46:06;;;;;;;18.40;12.97;;;15.40;27.10;;;;;;4985028;28;20501;-72
2024/03/09 11:48:52;;;;;;;18.97;13.57;;;15.60;26.20;;;;;;4983931;28;20457;-73
2024/03/09 11:51:39;;;;;;;17.63;12.37;;;15.60;23.50;;;;;;4986759;28;20578;-73
2024/03/09 11:54:27;;;;;;;27.30;20.00;;;15.60;23.20;;;;;;4982548;28;20598;-73
2024/03/09 11:57:13;;;;;;;16.17;12.23;;;15.70;25.00;;;;;;4984330;28;20449;-73
2024/03/09 11:59:59;;;;;;;20.43;14.57;;;15.90;25.20;;;;;;4985067;28;20481;-74
2024/03/09 12:02:44;;;;;;;17.53;12.70;;;15.90;23.30;;;;;;4981286;28;20430;-74
2024/03/09 12:05:30;;;;;;;16.47;12.03;;;15.80;23.00;;;;;;4985613;28;20968;-73
2024/03/09 12:08:16;;;;;;;17.87;12.37;;;15.70;25.10;;;;;;4981567;28;20554;-74
2024/03/09 12:11:05;;;;;;;16.70;11.30;;;15.60;26.50;;;;;;4984647;28;20426;-73
2024/03/09 12:13:52;;;;;;;16.43;11.90;;;15.60;25.10;;;;;;4981329;28;20442;-74
2024/03/09 12:16:38;;;;;;;21.40;12.77;;;15.60;25.60;;;;;;4978123;28;20790;-73
2024/03/09 12:19:25;;;;;;;15.17;10.60;;;15.80;25.30;;;;;;4983140;28;20444;-73
2024/03/09 12:22:11;;;;;;;15.10;9.47;;;16.10;22.90;;;;;;4984944;28;20570;-73
2024/03/09 12:24:57;;;;;;;15.50;11.60;;;16.40;23.90;;;;;;4982772;28;20474;-73
2024/03/09 12:27:45;;;;;;;14.10;11.23;;;16.50;23.60;;;;;;4986591;28;20419;-73
2024/03/09 12:30:30;;;;;;;15.23;10.97;;;16.60;19.70;;;;;;4989920;28;20573;-73
2024/03/09 12:33:16;;;;;;;16.80;12.53;;;16.80;20.20;;;;;;4983931;28;20782;-73
2024/03/09 12:36:03;;;;;;;17.10;12.17;;;16.90;18.20;;;;;;4987290;28;20977;-73
2024/03/09 12:38:50;;;;;;;15.75;10.65;;;17.10;20.00;;;;;;4989909;28;20507;-73
2024/03/09 12:41:36;;;;;;;14.57;10.20;;;17.40;21.90;;;;;;4989865;28;20222;-73
2024/03/09 12:44:24;;;;;;;14.70;9.73;;;17.60;18.90;;;;;;4989967;28;20461;-73
2024/03/09 12:47:14;;;;;;;12.30;9.30;;;17.60;16.40;;;;;;4988479;28;20429;-73
2024/03/09 12:50:02;;;;;;;13.40;9.50;;;17.60;17.80;;;;;;4987221;28;20471;-73
2024/03/09 12:52:49;;;;;;;12.20;8.20;;;17.70;19.10;;;;;;4988839;28;20566;-73
2024/03/09 12:55:35;;;;;;;11.27;8.50;;;17.70;15.50;;;;;;4988865;28;20437;-73
2024/03/09 12:58:21;;;;;;;11.93;9.17;;;17.80;14.20;;;;;;4986670;28;20990;-73
2024/03/09 13:01:08;;;;;;;15.63;8.43;;;17.70;14.10;;;;;;4989968;28;20431;-73
2024/03/09 13:03:55;;;;;;;9.30;7.27;;;17.60;14.10;;;;;;4990324;28;20446;-73
2024/03/09 13:06:42;;;;;;;10.43;7.00;;;17.60;13.90;;;;;;4990430;28;20467;-73
2024/03/09 13:09:30;;;;;;;9.77;7.07;;;17.70;15.00;;;;;;4983540;28;20803;-74
2024/03/09 13:12:24;;;;;;;13.30;8.13;;;17.60;13.00;;;;;;4987153;28;20437;-73
2024/03/09 13:15:15;;;;;;;15.97;9.80;;;17.50;12.90;;;;;;4990081;28;20479;-73
2024/03/09 13:18:03;;;;;;;12.00;8.63;;;17.70;13.10;;;;;;4987551;28;20457;-74
2024/03/09 13:20:51;;;;;;;7.90;5.60;;;17.80;12.30;;;;;;4987109;28;20809;-73
2024/03/09 13:23:37;;;;;;;9.23;4.93;;;18.00;11.90;;;;;;4986291;28;20470;-73
2024/03/09 13:26:22;;;;;;;9.00;5.30;;;18.30;12.10;;;;;;4988664;28;20627;-74
2024/03/09 13:29:08;;;;;;;8.50;5.17;;;18.40;10.30;;;;;;4994215;28;20419;-73
2024/03/09 13:31:54;;;;;;;8.10;4.93;;;18.40;9.40;;;;;;4993028;28;20404;-74
2024/03/09 13:34:42;;;;;;;7.47;5.13;;;18.40;8.70;;;;;;4990246;28;20467;-74
2024/03/09 13:37:27;;;;;;;10.80;4.80;;;18.50;9.60;;;;;;4985398;28;20430;-73
2024/03/09 13:40:13;;;;;;;9.20;5.53;;;18.60;10.80;;;;;;4989400;28;20543;-73
2024/03/09 13:42:59;;;;;;;7.50;5.20;;;18.60;10.50;;;;;;4992392;28;20432;-73
2024/03/09 13:45:50;;;;;;;9.13;5.17;;;18.70;10.60;;;;;;4990022;28;20634;-73
2024/03/09 13:48:40;;;;;;;8.13;5.30;;;18.80;10.90;;;;;;4988770;28;20601;-73
2024/03/09 13:51:27;;;;;;;9.57;5.17;;;18.90;10.80;;;;;;4986723;28;20471;-74
2024/03/09 13:54:16;;;;;;;8.13;4.80;;;18.90;8.70;;;;;;4986749;28;21634;-73
2024/03/09 13:57:02;;;;;;;8.17;4.57;;;18.70;8.30;;;;;;4987390;28;20427;-73
2024/03/09 13:59:48;;;;;;;13.63;4.87;;;18.40;8.60;;;;;;4987398;28;20452;-73
2024/03/09 14:02:36;;;;;;;7.53;4.43;;;18.40;10.60;;;;;;4987871;28;20430;-73
2024/03/09 14:05:24;;;;;;;8.20;5.37;;;18.30;9.30;;;;;;4992422;28;20512;-73
2024/03/09 14:08:11;;;;;;;6.60;4.53;;;18.20;8.50;;;;;;4983479;28;20568;-73
2024/03/09 14:10:57;;;;;;;6.90;4.67;;;18.10;8.80;;;;;;4986629;28;20783;-74
2024/03/09 14:13:43;;;;;;;8.50;4.90;;;18.10;10.10;;;;;;4988334;28;20548;-74
2024/03/09 14:16:29;;;;;;;6.47;4.70;;;18.20;10.60;;;;;;4988856;28;20981;-73
2024/03/09 14:19:14;;;;;;;8.70;5.27;;;18.20;10.20;;;;;;4988434;28;20945;-74